^^
Grace C. Lehan Memorial Weather Station Historical Data
Daily Summary for June 28, 2021 Units:  Metric    English   Both
Daily Weekly Monthly Yearly
  High: Low: Average:
Temperature: 35.8 °C 22.2 °C 29.4 °C
Dew Point: 26.2 °C 20.8 °C 23.4 °C
Humidity: 93% 50.4% 72%
Wind Speed: 6.3km/h 0km/h 1.3km/h
Wind Gust: 20.9km/h - -
Wind- - WSW
Pressure: 1020.9 hPa 1018.5 hPa -
Precipitation: 0 mm    
 
 
Tabular Data for June 28, 2021
Time Temperature Dew Point Pressure Wind Wind Speed Wind Gust Humidity Rainfall Rate (Hourly) solar
00:04 24 °C 21.1 °C 1018.8 hPa Calm     84% 0 mm 0 W/m2
00:09 24 °C 21.1 °C 1018.8 hPa WSW 0.2 km/h 3.2 km/h 84% 0 mm 0 W/m2
00:14 23.9 °C 21.1 °C 1018.8 hPa Calm   3.2 km/h 84% 0 mm 0 W/m2
00:19 23.9 °C 21.1 °C 1018.8 hPa Calm   3.2 km/h 84% 0 mm 0 W/m2
00:24 23.9 °C 21.1 °C 1018.5 hPa WSW 0.2 km/h 3.2 km/h 84.2% 0 mm 0 W/m2
00:29 23.9 °C 21.2 °C 1018.8 hPa Calm   3.2 km/h 85% 0 mm 0 W/m2
00:34 23.9 °C 21.2 °C 1018.8 hPa WSW 0.2 km/h 3.2 km/h 85% 0 mm 0 W/m2
00:39 23.8 °C 21.2 °C 1018.8 hPa Calm   3.2 km/h 85% 0 mm 0 W/m2
00:44 23.8 °C 21.1 °C 1018.8 hPa Calm   3.2 km/h 85% 0 mm 0 W/m2
00:49 23.7 °C 21.1 °C 1018.8 hPa Calm   3.2 km/h 85% 0 mm 0 W/m2
00:54 23.7 °C 21 °C 1018.8 hPa Calm   3.2 km/h 85% 0 mm 0 W/m2
00:59 23.6 °C 20.9 °C 1018.8 hPa Calm   3.2 km/h 85% 0 mm 0 W/m2
01:04 23.6 °C 21.1 °C 1018.8 hPa Calm   3.2 km/h 85.9% 0 mm 0 W/m2
01:09 23.6 °C 21.1 °C 1018.8 hPa Calm     86% 0 mm 0 W/m2
01:14 23.6 °C 21.1 °C 1018.8 hPa Calm     86% 0 mm 0 W/m2
01:19 23.6 °C 21.1 °C 1019.2 hPa Calm     86% 0 mm 0 W/m2
01:24 23.6 °C 21.1 °C 1018.8 hPa Calm     86% 0 mm 0 W/m2
01:29 23.5 °C 21.1 °C 1019.2 hPa Calm     86.2% 0 mm 0 W/m2
01:34 23.4 °C 21.2 °C 1019.2 hPa Calm     86.9% 0 mm 0 W/m2
01:39 23.4 °C 21.2 °C 1019.2 hPa Calm     87% 0 mm 0 W/m2
01:44 23.4 °C 21.1 °C 1019.2 hPa Calm     87% 0 mm 0 W/m2
01:49 23.3 °C 21.1 °C 1019.2 hPa Calm     87% 0 mm 0 W/m2
01:54 23.3 °C 21.1 °C 1019.2 hPa Calm     87.4% 0 mm 0 W/m2
01:59 23.3 °C 21.1 °C 1019.2 hPa Calm     87.6% 0 mm 0 W/m2
02:04 23.3 °C 21.2 °C 1019.2 hPa Calm     88% 0 mm 0 W/m2
02:09 23.2 °C 21.1 °C 1019.2 hPa Calm     88% 0 mm 0 W/m2
02:14 23.2 °C 21.1 °C 1019.2 hPa Calm     88% 0 mm 0 W/m2
02:19 23.2 °C 21.1 °C 1019.2 hPa Calm     88% 0 mm 0 W/m2
02:24 23.2 °C 21.1 °C 1019.2 hPa Calm     88% 0 mm 0 W/m2
02:29 23.2 °C 21.1 °C 1019.2 hPa Calm     88% 0 mm 0 W/m2
02:34 23.1 °C 21 °C 1019.2 hPa Calm     88% 0 mm 0 W/m2
02:39 23.1 °C 20.9 °C 1019.2 hPa Calm   1.6 km/h 88% 0 mm 0 W/m2
02:41 23.1 °C 20.9 °C 1019.2 hPa Calm   1.6 km/h 88% 0 mm 0 W/m2
03:00 22.9 °C 21 °C 1019.5 hPa Calm   3.2 km/h 89% 0 mm 0 W/m2
03:30 22.7 °C 21 °C 1019.5 hPa Calm   3.2 km/h 90% 0 mm 0 W/m2
04:03 22.6 °C 20.8 °C 1019.9 hPa Calm     90% 0 mm 0 W/m2
04:09 22.6 °C 21 °C 1019.9 hPa Calm     91% 0 mm 0 W/m2
04:14 22.5 °C 20.9 °C 1019.9 hPa Calm     91% 0 mm 0 W/m2
04:19 22.5 °C 20.9 °C 1019.9 hPa Calm     91% 0 mm 0 W/m2
04:24 22.4 °C 20.9 °C 1019.9 hPa Calm     91% 0 mm 0 W/m2
04:29 22.4 °C 20.9 °C 1019.9 hPa Calm     91% 0 mm 0 W/m2
04:34 22.4 °C 20.9 °C 1019.9 hPa Calm     91% 0 mm 0 W/m2
04:39 22.4 °C 20.8 °C 1019.9 hPa Calm     91% 0 mm 0 W/m2
04:44 22.3 °C 20.8 °C 1019.9 hPa Calm     91% 0 mm 0 W/m2
04:49 22.3 °C 20.8 °C 1020.2 hPa Calm     91% 0 mm 0 W/m2
04:54 22.3 °C 20.8 °C 1020.2 hPa Calm     91.4% 0 mm 0 W/m2
04:59 22.3 °C 20.9 °C 1020.2 hPa Calm     92% 0 mm 0 W/m2
05:04 22.3 °C 20.9 °C 1020.2 hPa Calm     92% 0 mm 0 W/m2
05:09 22.3 °C 20.9 °C 1020.2 hPa Calm     92% 0 mm 0 W/m2
05:14 22.2 °C 20.9 °C 1020.2 hPa Calm     92% 0 mm 0 W/m2
05:19 22.2 °C 20.9 °C 1020.2 hPa Calm     92% 0 mm 0 W/m2
05:24 22.2 °C 20.8 °C 1020.2 hPa Calm     92% 0 mm 0 W/m2
05:29 22.2 °C 20.8 °C 1020.5 hPa Calm     92% 0 mm 5 W/m2
05:34 22.2 °C 20.8 °C 1020.5 hPa Calm     92% 0 mm 7 W/m2
05:39 22.2 °C 20.8 °C 1020.5 hPa Calm     92% 0 mm 12 W/m2
05:44 22.2 °C 20.8 °C 1020.5 hPa Calm     92% 0 mm 16 W/m2
05:49 22.2 °C 20.8 °C 1020.5 hPa Calm     92% 0 mm 18 W/m2
05:54 22.2 °C 20.8 °C 1020.5 hPa Calm     92% 0 mm 23 W/m2
05:59 22.2 °C 20.8 °C 1020.5 hPa Calm     92% 0 mm 28 W/m2
06:04 22.2 °C 20.8 °C 1020.5 hPa Calm     92% 0 mm 32 W/m2
06:09 22.3 °C 21.1 °C 1020.5 hPa Calm     92.9% 0 mm 32 W/m2
06:14 22.3 °C 21.1 °C 1020.5 hPa Calm     93% 0 mm 35 W/m2
06:19 22.4 °C 21.2 °C 1020.5 hPa Calm     93% 0 mm 40 W/m2
06:24 22.4 °C 21.3 °C 1020.5 hPa Calm     93% 0 mm 46 W/m2
06:29 22.6 °C 21.2 °C 1020.5 hPa Calm     92.1% 0 mm 63 W/m2
06:34 22.7 °C 21.3 °C 1020.5 hPa Calm     92% 0 mm 81 W/m2
06:39 22.8 °C 21.4 °C 1020.5 hPa Calm     92% 0 mm 86 W/m2
06:44 23 °C 21.7 °C 1020.5 hPa Calm     92% 0 mm 83 W/m2
06:49 23.3 °C 21.8 °C 1020.5 hPa Calm     91.5% 0 mm 86 W/m2
06:54 23.6 °C 21.9 °C 1020.9 hPa Calm     90.7% 0 mm 86 W/m2
06:59 23.9 °C 22.1 °C 1020.9 hPa Calm     89.8% 0 mm 91 W/m2
07:04 24.3 °C 22.3 °C 1020.9 hPa Calm     88.8% 0 mm 91 W/m2
07:09 24.6 °C 22.3 °C 1020.9 hPa Calm     87.3% 0 mm 86 W/m2
07:14 24.9 °C 22.4 °C 1020.9 hPa Calm     85.9% 0 mm 84 W/m2
07:19 25.1 °C 22.4 °C 1020.5 hPa Calm     85% 0 mm 88 W/m2
07:24 25.3 °C 22.4 °C 1020.5 hPa Calm     84.1% 0 mm 127 W/m2
07:29 25.6 °C 22.7 °C 1020.5 hPa Calm   1.6 km/h 84% 0 mm 290 W/m2
07:34 25.8 °C 22.7 °C 1020.5 hPa Calm   1.6 km/h 83.2% 0 mm 304 W/m2
07:39 26.1 °C 22.8 °C 1020.9 hPa Calm     82.2% 0 mm 304 W/m2
07:44 26.4 °C 23.1 °C 1020.9 hPa Calm   1.6 km/h 81.8% 0 mm 306 W/m2
07:49 26.8 °C 23.2 °C 1020.9 hPa Calm   1.6 km/h 81% 0 mm 325 W/m2
07:54 27.1 °C 23.3 °C 1020.9 hPa Calm   1.6 km/h 79.8% 0 mm 338 W/m2
07:59 27.4 °C 23.4 °C 1020.9 hPa Calm   1.6 km/h 79% 0 mm 336 W/m2
08:04 27.8 °C 23.6 °C 1020.9 hPa Calm     78% 0 mm 360 W/m2
08:09 27.9 °C 23.8 °C 1020.9 hPa WSW 0.2 km/h 4.8 km/h 78.2% 0 mm 359 W/m2
08:14 28.2 °C 23.7 °C 1020.9 hPa Calm   4.8 km/h 76.8% 0 mm 288 W/m2
08:19 28.3 °C 23.8 °C 1020.9 hPa WSW 0.6 km/h 11.3 km/h 76.5% 0 mm 450 W/m2
08:24 28.6 °C 24.2 °C 1020.9 hPa SW 1.9 km/h 11.3 km/h 77.3% 0 mm 473 W/m2
08:29 28.9 °C 24.1 °C 1020.9 hPa SW 0.8 km/h 11.3 km/h 75.2% 0 mm 501 W/m2
08:34 29.2 °C 24.4 °C 1020.9 hPa SW 0.3 km/h 11.3 km/h 75.3% 0 mm 526 W/m2
08:39 29.6 °C 24.5 °C 1020.9 hPa SW 0.3 km/h 8 km/h 74.2% 0 mm 552 W/m2
08:44 30 °C 24.4 °C 1020.9 hPa SW 0.2 km/h 8 km/h 72.2% 0 mm 552 W/m2
08:49 30.2 °C 24.5 °C 1020.9 hPa SW 1.3 km/h 8 km/h 71.4% 0 mm 424 W/m2
08:54 30.3 °C 24.4 °C 1020.9 hPa SW 0.6 km/h 8 km/h 70.8% 0 mm 411 W/m2
08:59 30.3 °C 24.4 °C 1020.9 hPa SW 1.1 km/h 9.7 km/h 70.9% 0 mm 520 W/m2
09:04 30.2 °C 24.5 °C 1020.5 hPa SW 0.3 km/h 9.7 km/h 71.5% 0 mm 450 W/m2
09:09 30.3 °C 24.6 °C 1020.9 hPa SW 0.3 km/h 6.4 km/h 71.7% 0 mm 406 W/m2
09:14 30.2 °C 24.3 °C 1020.9 hPa SW 0.2 km/h 6.4 km/h 70.9% 0 mm 357 W/m2
09:19 30.1 °C 24.3 °C 1020.9 hPa SW 1.3 km/h 9.7 km/h 71.4% 0 mm 378 W/m2
09:24 29.9 °C 24.3 °C 1020.9 hPa Calm   9.7 km/h 71.8% 0 mm 373 W/m2
09:29 29.9 °C 24.3 °C 1020.5 hPa Calm   9.7 km/h 71.8% 0 mm 601 W/m2
09:34 29.9 °C 24.6 °C 1020.5 hPa WSW 2.3 km/h 14.5 km/h 73% 0 mm 788 W/m2
09:39 30.3 °C 24.7 °C 1020.5 hPa WSW 3.5 km/h 14.5 km/h 71.8% 0 mm 768 W/m2
09:44 30.7 °C 24.7 °C 1020.5 hPa WSW 4.7 km/h 16.1 km/h 70.2% 0 mm 773 W/m2
09:49 31.1 °C 24.9 °C 1020.5 hPa WSW 0.8 km/h 16.1 km/h 69.7% 0 mm 687 W/m2
09:54 31.3 °C 24.9 °C 1020.5 hPa WSW 0.3 km/h 16.1 km/h 68.9% 0 mm 668 W/m2
09:59 31.4 °C 24.7 °C 1020.5 hPa WSW 1.4 km/h 16.1 km/h 67.8% 0 mm 608 W/m2
10:04 31.3 °C 24.8 °C 1020.5 hPa WSW 1.9 km/h 16.1 km/h 68.2% 0 mm 506 W/m2
10:09 31.2 °C 24.8 °C 1020.5 hPa WSW 2.9 km/h 9.7 km/h 68.7% 0 mm 587 W/m2
10:14 31.1 °C 24.6 °C 1020.5 hPa WSW 0.6 km/h 9.7 km/h 68.5% 0 mm 691 W/m2
10:19 31.1 °C 24.8 °C 1020.5 hPa WSW 1.1 km/h 9.7 km/h 69.3% 0 mm 773 W/m2
10:24 31.2 °C 25.1 °C 1020.5 hPa WSW 0.8 km/h 9.7 km/h 70% 0 mm 795 W/m2
10:29 31.5 °C 25.1 °C 1020.5 hPa WSW 1.8 km/h 11.3 km/h 69.1% 0 mm 819 W/m2
10:34 31.8 °C 25.2 °C 1020.5 hPa WSW 2.1 km/h 11.3 km/h 67.8% 0 mm 851 W/m2
10:39 32.2 °C 25.6 °C 1020.5 hPa WSW 1.3 km/h 9.7 km/h 68.1% 0 mm 867 W/m2
10:44 32.6 °C 25.4 °C 1020.5 hPa WSW 1.9 km/h 9.7 km/h 66.1% 0 mm 868 W/m2
10:49 32.9 °C 25.9 °C 1020.5 hPa WSW 1.9 km/h 9.7 km/h 66.8% 0 mm 874 W/m2
10:54 33.2 °C 25.6 °C 1020.5 hPa WSW 2.4 km/h 11.3 km/h 64.8% 0 mm 874 W/m2
10:59 33.3 °C 25.6 °C 1020.5 hPa WSW 2.3 km/h 11.3 km/h 64.1% 0 mm 863 W/m2
11:04 33.6 °C 25.7 °C 1020.5 hPa WSW 1.3 km/h 11.3 km/h 63.5% 0 mm 854 W/m2
11:09 33.8 °C 25.6 °C 1020.2 hPa WSW 1.3 km/h 6.4 km/h 62.3% 0 mm 858 W/m2
11:14 33.7 °C 25.4 °C 1020.2 hPa WSW 1.6 km/h 6.4 km/h 62% 0 mm 847 W/m2
11:19 33.8 °C 25.7 °C 1020.2 hPa WSW 2.4 km/h 8 km/h 62.7% 0 mm 867 W/m2
11:24 33.9 °C 25.7 °C 1020.2 hPa SW 2.4 km/h 8 km/h 62.5% 0 mm 907 W/m2
11:29 34.1 °C 25.9 °C 1020.2 hPa WSW 3.1 km/h 8 km/h 62.4% 0 mm 919 W/m2
11:34 34.4 °C 26.2 °C 1020.5 hPa WSW 0.2 km/h 8 km/h 62.3% 0 mm 921 W/m2
11:39 34.7 °C 25.7 °C 1020.5 hPa WSW 1.4 km/h 6.4 km/h 59.5% 0 mm 937 W/m2
11:44 34.8 °C 25.9 °C 1020.5 hPa WSW 1.6 km/h 6.4 km/h 59.9% 0 mm 937 W/m2
11:49 34.8 °C 26.1 °C 1020.2 hPa WSW 2.6 km/h 8 km/h 60.7% 0 mm 1016 W/m2
11:54 34.6 °C 25.5 °C 1020.2 hPa WSW 1.9 km/h 8 km/h 59.3% 0 mm 1016 W/m2
11:59 34.5 °C 25.7 °C 1020.2 hPa WSW 1.8 km/h 8 km/h 60.3% 0 mm 1016 W/m2
12:00 34.4 °C 25.6 °C 1020.2 hPa Calm   8 km/h 60% 0 mm 981 W/m2
12:09 34.3 °C 25.3 °C 1020.2 hPa WSW 0.8 km/h 4.8 km/h 59.7% 0 mm 1021 W/m2
12:14 34.3 °C 25.9 °C 1020.2 hPa WSW 1.4 km/h 8 km/h 61.5% 0 mm 1021 W/m2
12:19 34.4 °C 25.6 °C 1020.2 hPa WSW 1.6 km/h 8 km/h 60.2% 0 mm 937 W/m2
12:24 34.2 °C 25.3 °C 1019.9 hPa WSW 2.9 km/h 8 km/h 59.6% 0 mm 949 W/m2
12:29 34.2 °C 25.6 °C 1019.9 hPa WSW 1.8 km/h 11.3 km/h 60.9% 0 mm 949 W/m2
12:34 34.4 °C 25.9 °C 1019.9 hPa WSW 3.1 km/h 11.3 km/h 61.6% 0 mm 939 W/m2
12:39 34.7 °C 25.6 °C 1019.9 hPa West 4 km/h 11.3 km/h 59.1% 0 mm 944 W/m2
12:44 34.9 °C 25.4 °C 1019.9 hPa SW 4.5 km/h 16.1 km/h 58% 0 mm 933 W/m2
12:49 34.9 °C 25.4 °C 1019.9 hPa WSW 5.3 km/h 16.1 km/h 58% 0 mm 911 W/m2
12:54 35 °C 25.1 °C 1019.9 hPa WSW 6.3 km/h 20.9 km/h 56.6% 0 mm 932 W/m2
12:59 35 °C 25.2 °C 1019.9 hPa WSW 4.2 km/h 20.9 km/h 57% 0 mm 933 W/m2
13:04 35.1 °C 25.1 °C 1019.5 hPa SW 3.5 km/h 20.9 km/h 56.3% 0 mm 944 W/m2
13:09 35 °C 25.2 °C 1019.5 hPa SW 3.1 km/h 9.7 km/h 57% 0 mm 963 W/m2
13:14 35.1 °C 25.1 °C 1019.5 hPa SSW 2.7 km/h 9.7 km/h 56.4% 0 mm 983 W/m2
13:19 35.2 °C 25.1 °C 1019.5 hPa SW 4.5 km/h 14.5 km/h 56.2% 0 mm 981 W/m2
13:24 35.4 °C 25.1 °C 1019.5 hPa WSW 2.7 km/h 14.5 km/h 55.5% 0 mm 998 W/m2
13:29 35.5 °C 25.1 °C 1019.5 hPa WSW 4.8 km/h 14.5 km/h 55.2% 0 mm 976 W/m2
13:34 35.6 °C 25.1 °C 1019.5 hPa WSW 4.3 km/h 14.5 km/h 55% 0 mm 974 W/m2
13:39 35.6 °C 24.9 °C 1019.5 hPa WSW 4.8 km/h 16.1 km/h 54.2% 0 mm 974 W/m2
13:44 35.6 °C 24.6 °C 1019.5 hPa WSW 4.7 km/h 16.1 km/h 53.1% 0 mm 816 W/m2
13:49 35.6 °C 24.6 °C 1019.5 hPa WSW 3.2 km/h 16.1 km/h 53.1% 0 mm 863 W/m2
13:54 35.6 °C 25 °C 1019.5 hPa WSW 1.9 km/h 16.1 km/h 54.7% 0 mm 856 W/m2
13:59 35.4 °C 24.6 °C 1019.5 hPa SW 3.2 km/h 16.1 km/h 53.8% 0 mm 912 W/m2
14:04 35.3 °C 24.6 °C 1019.5 hPa SW 1.4 km/h 16.1 km/h 54.2% 0 mm 918 W/m2
14:09 35.3 °C 25.1 °C 1019.5 hPa WSW 3.7 km/h 14.5 km/h 55.6% 0 mm 962 W/m2
14:14 35.4 °C 24.9 °C 1019.5 hPa West 3.1 km/h 14.5 km/h 54.8% 0 mm 962 W/m2
14:19 35.4 °C 24.4 °C 1019.5 hPa WSW 2.6 km/h 14.5 km/h 53% 0 mm 923 W/m2
14:24 35.4 °C 25.1 °C 1019.5 hPa West 2.7 km/h 14.5 km/h 55.3% 0 mm 923 W/m2
14:29 35.6 °C 24.7 °C 1019.5 hPa SW 4 km/h 14.5 km/h 53.3% 0 mm 805 W/m2
14:34 35.7 °C 24.4 °C 1019.5 hPa WSW 3.2 km/h 14.5 km/h 52.5% 0 mm 650 W/m2
14:39 35.6 °C 24.9 °C 1019.5 hPa WSW 2.7 km/h 11.3 km/h 54% 0 mm 853 W/m2
14:44 35.7 °C 25 °C 1019.2 hPa West 2.1 km/h 11.3 km/h 54.2% 0 mm 872 W/m2
14:49 35.8 °C 24.6 °C 1019.2 hPa WSW 3.7 km/h 11.3 km/h 52.5% 0 mm 802 W/m2
14:54 35.8 °C 24.4 °C 1019.2 hPa West 2.9 km/h 11.3 km/h 51.9% 0 mm 740 W/m2
14:59 35.8 °C 24.8 °C 1019.2 hPa West 3.9 km/h 11.3 km/h 53.2% 0 mm 740 W/m2
15:04 35.7 °C 24.3 °C 1019.2 hPa WSW 4.7 km/h 16.1 km/h 52.2% 0 mm 679 W/m2
15:09 35.4 °C 24 °C 1019.2 hPa SW 4.5 km/h 16.1 km/h 51.8% 0 mm 541 W/m2
15:14 35.3 °C 24.2 °C 1019.2 hPa SW 3.1 km/h 16.1 km/h 52.8% 0 mm 608 W/m2
15:19 35.2 °C 24 °C 1019.2 hPa SW 4.3 km/h 16.1 km/h 52.3% 0 mm 722 W/m2
15:24 35.2 °C 23.6 °C 1019.2 hPa SW 5 km/h 16.1 km/h 51% 0 mm 733 W/m2
15:29 35.2 °C 23.9 °C 1019.2 hPa SW 3.4 km/h 16.1 km/h 52.1% 0 mm 698 W/m2
15:34 35.3 °C 23.9 °C 1019.2 hPa WSW 3.1 km/h 16.1 km/h 51.8% 0 mm 629 W/m2
15:39 35.3 °C 24.3 °C 1019.2 hPa West 3.9 km/h 16.1 km/h 53.1% 0 mm 733 W/m2
15:44 35.4 °C 23.8 °C 1019.2 hPa WSW 3.5 km/h 16.1 km/h 51.4% 0 mm 726 W/m2
15:49 35.4 °C 23.9 °C 1019.2 hPa SW 3.4 km/h 16.1 km/h 51.4% 0 mm 726 W/m2
15:54 35.3 °C 24.2 °C 1018.8 hPa WSW 2.7 km/h 16.1 km/h 52.7% 0 mm 671 W/m2
15:59 35.4 °C 24.1 °C 1018.8 hPa WSW 4.3 km/h 16.1 km/h 52% 0 mm 708 W/m2
16:00 35.5 °C 23.8 °C 1018.8 hPa SW 4 km/h 16.1 km/h 51% 0 mm 689 W/m2
16:09 35.7 °C 24.3 °C 1018.8 hPa West 1.4 km/h 6.4 km/h 51.8% 0 mm 693 W/m2
16:14 35.7 °C 24.4 °C 1018.8 hPa West 1.8 km/h 9.7 km/h 52.2% 0 mm 701 W/m2
16:19 35.7 °C 23.9 °C 1018.8 hPa SW 5.1 km/h 17.7 km/h 50.7% 0 mm 671 W/m2
16:24 35.5 °C 23.6 °C 1018.8 hPa WSW 3.4 km/h 17.7 km/h 50.4% 0 mm 67 W/m2
16:29 35.3 °C 23.8 °C 1018.8 hPa WSW 4.5 km/h 19.3 km/h 51.3% 0 mm 77 W/m2
16:34 35.2 °C 23.8 °C 1018.8 hPa WSW 1 km/h 19.3 km/h 51.7% 0 mm 74 W/m2
16:39 35.2 °C 24 °C 1018.5 hPa WSW 3.9 km/h 14.5 km/h 52.5% 0 mm 62 W/m2
16:44 35.1 °C 23.9 °C 1018.5 hPa WSW 2.6 km/h 14.5 km/h 52.3% 0 mm 62 W/m2
16:49 35.1 °C 23.6 °C 1018.5 hPa WSW 2.9 km/h 14.5 km/h 51.7% 0 mm 72 W/m2
16:54 35.1 °C 23.6 °C 1018.5 hPa West 2.9 km/h 14.5 km/h 51.6% 0 mm 69 W/m2
16:59 35 °C 23.7 °C 1018.5 hPa WSW 6.1 km/h 19.3 km/h 52% 0 mm 54 W/m2
17:04 34.9 °C 23.2 °C 1018.5 hPa WSW 4.7 km/h 19.3 km/h 50.6% 0 mm 67 W/m2
17:09 34.9 °C 23.1 °C 1018.5 hPa WSW 3.5 km/h 19.3 km/h 50.6% 0 mm 70 W/m2
17:14 34.8 °C 23.4 °C 1018.5 hPa WSW 4.2 km/h 19.3 km/h 51.7% 0 mm 51 W/m2
17:19 34.8 °C 23.6 °C 1018.5 hPa SW 3.4 km/h 19.3 km/h 52.3% 0 mm 53 W/m2
17:24 34.7 °C 23.4 °C 1018.5 hPa WSW 5 km/h 19.3 km/h 52.2% 0 mm 62 W/m2
17:29 34.5 °C 23.3 °C 1018.5 hPa WSW 3.7 km/h 19.3 km/h 52.2% 0 mm 60 W/m2
17:34 34.4 °C 23.2 °C 1018.5 hPa SW 5.5 km/h 19.3 km/h 52.4% 0 mm 51 W/m2
17:39 34.3 °C 23.4 °C 1018.5 hPa SW 1.6 km/h 16.1 km/h 53.2% 0 mm 65 W/m2
17:44 34.3 °C 23.8 °C 1018.5 hPa WSW 2.3 km/h 16.1 km/h 54.2% 0 mm 77 W/m2
17:49 34.3 °C 23.7 °C 1018.5 hPa SW 3.9 km/h 16.1 km/h 54% 0 mm 77 W/m2
17:54 34.3 °C 23.7 °C 1018.5 hPa WSW 5.3 km/h 16.1 km/h 54% 0 mm 51 W/m2
17:59 34.3 °C 23.7 °C 1018.5 hPa SW 4.8 km/h 16.1 km/h 54.4% 0 mm 58 W/m2
18:04 34.2 °C 23.6 °C 1018.5 hPa SW 3.2 km/h 16.1 km/h 54.4% 0 mm 65 W/m2
18:09 34.1 °C 23.8 °C 1018.5 hPa WSW 2.3 km/h 16.1 km/h 55.2% 0 mm 77 W/m2
18:14 34 °C 24 °C 1018.5 hPa WSW 0.6 km/h 16.1 km/h 56% 0 mm 76 W/m2
18:19 33.9 °C 24.5 °C 1018.5 hPa WSW 3.4 km/h 16.1 km/h 57.9% 0 mm 102 W/m2
18:24 33.8 °C 25.1 °C 1018.5 hPa SSW 1.4 km/h 16.1 km/h 60.5% 0 mm 100 W/m2
18:29 33.7 °C 25.2 °C 1018.8 hPa WSW 2.4 km/h 16.1 km/h 61.5% 0 mm 95 W/m2
18:34 33.4 °C 25.1 °C 1018.8 hPa SSW 2.6 km/h 16.1 km/h 62% 0 mm 44 W/m2
18:39 33.1 °C 25.1 °C 1018.5 hPa SSW 1.3 km/h 8 km/h 63.1% 0 mm 44 W/m2
18:44 32.8 °C 25.1 °C 1018.5 hPa WNW 0.6 km/h 8 km/h 64.2% 0 mm 33 W/m2
18:49 32.5 °C 25.1 °C 1018.5 hPa WSW 2.1 km/h 8 km/h 65% 0 mm 32 W/m2
18:54 32.3 °C 24.9 °C 1018.8 hPa South 0.3 km/h 8 km/h 65.3% 0 mm 30 W/m2
18:59 32.1 °C 25 °C 1018.8 hPa South 2.6 km/h 11.3 km/h 66% 0 mm 28 W/m2
19:04 32 °C 24.9 °C 1018.8 hPa SSW 0.5 km/h 11.3 km/h 66.4% 0 mm 28 W/m2
19:09 31.8 °C 24.9 °C 1018.8 hPa SSW 1.1 km/h 6.4 km/h 67% 0 mm 26 W/m2
19:14 31.7 °C 24.8 °C 1018.8 hPa SSW 1.3 km/h 6.4 km/h 67% 0 mm 25 W/m2
19:19 31.6 °C 24.8 °C 1018.8 hPa SSW 1.6 km/h 8 km/h 67.3% 0 mm 25 W/m2
19:24 31.4 °C 24.8 °C 1018.8 hPa SSW 0.6 km/h 9.7 km/h 68% 0 mm 23 W/m2
19:29 31.3 °C 24.7 °C 1018.8 hPa SSW 0.8 km/h 9.7 km/h 68% 0 mm 21 W/m2
19:34 31.2 °C 24.6 °C 1018.8 hPa SW 1.3 km/h 9.7 km/h 68% 0 mm 19 W/m2
19:39 31.1 °C 24.6 °C 1018.8 hPa WSW 1.3 km/h 16.1 km/h 68.7% 0 mm 18 W/m2
19:44 30.9 °C 24.6 °C 1019.2 hPa WSW 1.4 km/h 16.1 km/h 69% 0 mm 18 W/m2
19:49 30.8 °C 24.4 °C 1019.2 hPa WSW 1 km/h 16.1 km/h 69% 0 mm 16 W/m2
19:54 30.7 °C 24.3 °C 1018.8 hPa SW 0.3 km/h 16.1 km/h 69.2% 0 mm 12 W/m2
19:59 30.5 °C 24.3 °C 1019.2 hPa SW 1.1 km/h 16.1 km/h 69.5% 0 mm 11 W/m2
20:00 30.4 °C 24.3 °C 1019.2 hPa Calm   16.1 km/h 70% 0 mm 9 W/m2
20:09 30.3 °C 24.2 °C 1019.2 hPa SSW 0.6 km/h 9.7 km/h 70% 0 mm 7 W/m2
20:14 30.2 °C 24.1 °C 1019.2 hPa WSW 0.8 km/h 9.7 km/h 70% 0 mm 5 W/m2
20:19 30 °C 23.9 °C 1019.2 hPa WSW 0.2 km/h 9.7 km/h 70.1% 0 mm 0 W/m2
20:24 29.9 °C 24.1 °C 1019.2 hPa SW 0.6 km/h 9.7 km/h 70.8% 0 mm 0 W/m2
20:29 29.8 °C 23.9 °C 1018.8 hPa SW 0.5 km/h 9.7 km/h 71% 0 mm 0 W/m2
20:34 29.6 °C 23.8 °C 1018.8 hPa WSW 0.2 km/h 9.7 km/h 71.2% 0 mm 0 W/m2
20:39 29.5 °C 23.8 °C 1019.2 hPa WSW 0.2 km/h 6.4 km/h 71.6% 0 mm 0 W/m2
20:44 29.4 °C 23.8 °C 1019.2 hPa WSW 0.3 km/h 6.4 km/h 72% 0 mm 0 W/m2
20:49 29.3 °C 23.8 °C 1019.2 hPa WSW 0.3 km/h 6.4 km/h 72.6% 0 mm 0 W/m2
20:54 29.2 °C 23.8 °C 1019.2 hPa Calm   6.4 km/h 73% 0 mm 0 W/m2
20:59 29.1 °C 23.7 °C 1019.2 hPa WSW 0.2 km/h 6.4 km/h 73% 0 mm 0 W/m2
21:04 28.9 °C 23.8 °C 1019.2 hPa Calm   6.4 km/h 73.8% 0 mm 0 W/m2
21:09 28.8 °C 23.7 °C 1019.2 hPa Calm     74% 0 mm 0 W/m2
21:14 28.8 °C 23.7 °C 1019.2 hPa Calm     74% 0 mm 0 W/m2
21:19 28.7 °C 23.6 °C 1019.2 hPa Calm     74% 0 mm 0 W/m2
21:24 28.6 °C 23.6 °C 1019.5 hPa Calm     74.4% 0 mm 0 W/m2
21:29 28.5 °C 23.6 °C 1019.5 hPa Calm     75% 0 mm 0 W/m2
21:34 28.4 °C 23.6 °C 1019.5 hPa Calm     75% 0 mm 0 W/m2
21:39 28.3 °C 23.5 °C 1019.5 hPa Calm     75% 0 mm 0 W/m2
21:44 28.3 °C 23.4 °C 1019.9 hPa Calm     75% 0 mm 0 W/m2
21:49 28.2 °C 23.3 °C 1019.9 hPa Calm     75% 0 mm 0 W/m2
21:54 28.1 °C 23.4 °C 1019.9 hPa Calm     75.9% 0 mm 0 W/m2
21:59 28 °C 23.4 °C 1019.9 hPa Calm     76% 0 mm 0 W/m2
22:04 27.9 °C 23.3 °C 1019.9 hPa Calm     76% 0 mm 0 W/m2
22:09 27.8 °C 23.2 °C 1019.9 hPa Calm     76% 0 mm 0 W/m2
22:14 27.7 °C 23.2 °C 1019.9 hPa Calm     76.1% 0 mm 0 W/m2
22:19 27.7 °C 23.3 °C 1019.9 hPa Calm     77% 0 mm 0 W/m2
22:24 27.6 °C 23.2 °C 1019.9 hPa Calm     77% 0 mm 0 W/m2
22:29 27.4 °C 23.1 °C 1019.9 hPa Calm     77% 0 mm 0 W/m2
22:34 27.4 °C 23 °C 1019.9 hPa Calm     77% 0 mm 0 W/m2
22:39 27.3 °C 23.1 °C 1019.9 hPa Calm     78% 0 mm 0 W/m2
22:44 27.2 °C 23.1 °C 1019.9 hPa Calm     78% 0 mm 0 W/m2
22:49 27.1 °C 22.9 °C 1019.9 hPa Calm     78% 0 mm 0 W/m2
22:54 27.1 °C 22.9 °C 1019.9 hPa Calm     78% 0 mm 0 W/m2
22:59 26.9 °C 22.9 °C 1019.9 hPa Calm     78.6% 0 mm 0 W/m2
23:04 26.9 °C 22.9 °C 1019.9 hPa Calm     79% 0 mm 0 W/m2
23:09 26.8 °C 22.9 °C 1019.9 hPa Calm     79% 0 mm 0 W/m2
23:14 26.8 °C 22.8 °C 1019.9 hPa Calm     79% 0 mm 0 W/m2
23:19 26.7 °C 22.8 °C 1019.9 hPa Calm     79.4% 0 mm 0 W/m2
23:24 26.6 °C 22.9 °C 1019.9 hPa Calm     80% 0 mm 0 W/m2
23:29 26.6 °C 22.8 °C 1019.9 hPa Calm     80% 0 mm 0 W/m2
23:34 26.5 °C 22.8 °C 1020.2 hPa Calm     80% 0 mm 0 W/m2
23:39 26.5 °C 22.7 °C 1020.2 hPa Calm     80% 0 mm 0 W/m2
23:44 26.4 °C 22.7 °C 1020.2 hPa Calm     80% 0 mm 0 W/m2
23:49 26.4 °C 22.7 °C 1020.2 hPa Calm     80.2% 0 mm 0 W/m2
23:54 26.3 °C 22.8 °C 1020.2 hPa Calm     81% 0 mm 0 W/m2
23:59 26.3 °C 22.7 °C 1020.2 hPa Calm     81% 0 mm 0 W/m2
Hartford County Weather
Compliments of Weather Underground - 2 mb